createdAt,value
2018-02-18T05:36:01.092Z,0.1
2018-02-18T05:38:01.087Z,0.2
2018-02-18T05:39:01.345Z,0.3
2018-02-18T05:41:01.092Z,0.4
2018-02-18T05:42:01.086Z,0.5
2018-02-18T05:44:01.338Z,0.7
2018-02-18T05:45:01.088Z,0.8
2018-02-18T05:46:01.088Z,0.9
2018-02-18T05:47:01.059Z,1.1
2018-02-18T05:48:01.091Z,1.3
2018-02-18T05:49:01.332Z,1.5
2018-02-18T05:50:01.089Z,1.7
2018-02-18T05:51:01.095Z,1.9
2018-02-18T05:52:01.090Z,2.2
2018-02-18T05:53:01.123Z,2.5
2018-02-18T05:54:01.301Z,2.9
2018-02-18T05:55:01.122Z,3.4
2018-02-18T05:56:01.090Z,4.0
2018-02-18T05:57:01.090Z,4.7
2018-02-18T05:58:01.094Z,5.6
2018-02-18T05:59:01.305Z,6.6
2018-02-18T06:00:01.127Z,7.8
2018-02-18T06:01:01.094Z,9.3
2018-02-18T06:02:01.093Z,11.0
2018-02-18T06:03:01.094Z,13.1
2018-02-18T06:04:01.302Z,15.5
2018-02-18T06:05:01.127Z,18.5
2018-02-18T06:06:01.095Z,22.1
2018-02-18T06:07:01.068Z,26.3
2018-02-18T06:08:01.066Z,31.3
2018-02-18T06:09:01.340Z,37.3
2018-02-18T06:10:01.132Z,44.3
2018-02-18T06:11:01.102Z,52.6
2018-02-18T06:13:01.082Z,64.1
2018-02-18T06:14:01.288Z,77.5
2018-02-18T06:15:01.052Z,93.0
2018-02-18T06:16:01.110Z,111.1
2018-02-18T06:17:01.080Z,132.1
2018-02-18T06:18:01.087Z,157.1
2018-02-18T06:19:01.291Z,186.9
2018-02-18T06:20:01.149Z,222.9
2018-02-18T06:21:01.113Z,266.1
2018-02-18T06:22:01.087Z,316.8
2018-02-18T06:23:01.105Z,375.5
2018-02-18T06:24:01.355Z,443.0
2018-02-18T06:25:01.091Z,520.3
2018-02-18T06:26:01.086Z,607.0
2018-02-18T06:27:01.089Z,702.9
2018-02-18T06:28:01.116Z,806.1
2018-02-18T06:29:01.287Z,917.6
2018-02-18T06:30:01.097Z,1037.4
2018-02-18T06:31:01.088Z,1165.5
2018-02-18T06:32:01.085Z,1302.5
2018-02-18T06:33:01.116Z,1447.7
2018-02-18T06:34:01.290Z,1598.9
2018-02-18T06:35:01.059Z,1754.3
2018-02-18T06:36:01.056Z,1912.9
2018-02-18T06:37:01.089Z,2075.5
2018-02-18T06:38:01.124Z,2243.1
2018-02-18T06:39:01.296Z,2416.0
2018-02-18T06:40:01.100Z,2594.8
2018-02-18T06:41:01.097Z,2781.8
2018-02-18T06:42:01.097Z,2979.1
2018-02-18T06:43:01.085Z,3188.7
2018-02-18T06:44:01.299Z,3411.6
2018-02-18T06:45:01.089Z,3649.3
2018-02-18T06:46:01.090Z,3902.9
2018-02-18T06:47:01.124Z,4173.0
2018-02-18T06:48:01.091Z,4460.1
2018-02-18T06:49:01.301Z,4766.3
2018-02-18T06:50:01.090Z,5092.9
2018-02-18T06:51:01.061Z,5440.7
2018-02-18T06:52:01.124Z,5807.5
2018-02-18T06:53:01.094Z,6192.3
2018-02-18T06:54:02.328Z,6593.1
2018-02-18T06:55:01.069Z,7011.9
2018-02-18T06:56:01.098Z,7449.7
2018-02-18T06:57:01.120Z,7905.5
2018-02-18T06:58:01.112Z,8379.0
2018-02-18T06:59:01.308Z,8870.7
2018-02-18T07:00:01.125Z,9379.4
2018-02-18T07:01:01.092Z,9903.1
2018-02-18T07:02:01.096Z,10441.3
2018-02-18T07:03:01.096Z,10995.5
2018-02-18T07:04:01.328Z,11566.0
2018-02-18T07:05:01.130Z,12153.5
2018-02-18T07:06:01.103Z,12756.4
2018-02-18T07:07:01.099Z,13367.6
2018-02-18T07:08:01.070Z,13978.4
2018-02-18T07:10:01.408Z,14609.0
2018-02-18T07:11:01.083Z,15222.3
2018-02-18T07:12:01.154Z,15815.8
2018-02-18T07:13:01.054Z,16379.4
2018-02-18T07:14:01.094Z,16904.7
2018-02-18T07:15:01.301Z,17378.6
2018-02-18T07:16:01.123Z,17810.9
2018-02-18T07:17:01.083Z,18206.9
2018-02-18T07:18:01.089Z,18571.5
2018-02-18T07:19:01.088Z,18926.9
2018-02-18T07:20:01.287Z,19275.2
2018-02-18T07:21:01.116Z,19596.6
2018-02-18T07:22:01.087Z,19870.5
2018-02-18T07:23:01.088Z,20107.2
2018-02-18T07:24:01.091Z,20341.1
2018-02-18T07:25:01.272Z,20541.9
2018-02-18T07:26:01.114Z,20724.8
2018-02-18T07:27:01.062Z,20897.5
2018-02-18T07:28:01.098Z,21060.1
2018-02-18T07:29:01.096Z,21251.2
2018-02-18T07:30:01.297Z,21475.0
2018-02-18T07:31:01.102Z,21719.7
2018-02-18T07:32:01.089Z,21983.7
2018-02-18T07:33:01.089Z,22278.9
2018-02-18T07:34:01.087Z,22588.8
2018-02-18T07:35:01.294Z,22910.1
2018-02-18T07:36:01.094Z,23235.0
2018-02-18T07:37:01.123Z,23576.5
2018-02-18T07:38:01.092Z,23953.5
2018-02-18T07:39:01.099Z,24323.1
2018-02-18T07:40:01.293Z,24696.7
2018-02-18T07:41:01.092Z,25086.1
2018-02-18T07:42:01.095Z,25480.0
2018-02-18T07:43:01.130Z,25888.1
2018-02-18T07:44:01.091Z,26275.1
2018-02-18T07:45:01.298Z,26651.7
2018-02-18T07:46:01.094Z,27024.2
2018-02-18T07:47:01.143Z,27392.1
2018-02-18T07:48:01.098Z,27738.5
2018-02-18T07:49:01.093Z,28056.6
2018-02-18T07:50:01.326Z,28350.8
2018-02-18T07:51:01.090Z,28654.6
2018-02-18T07:52:01.129Z,28981.4
2018-02-18T07:53:01.096Z,29315.1
2018-02-18T07:54:01.102Z,29677.5
2018-02-18T07:55:01.299Z,30073.5
2018-02-18T07:56:01.094Z,30513.0
2018-02-18T07:57:01.126Z,31005.9
2018-02-18T07:58:01.097Z,31555.9
2018-02-18T07:59:01.094Z,32179.4
2018-02-18T08:00:01.297Z,32893.1
2018-02-18T08:01:01.094Z,33725.2
2018-02-18T08:02:01.128Z,34699.9
2018-02-18T08:03:01.067Z,35881.2
2018-02-18T08:04:01.096Z,37203.0
2018-02-18T08:05:01.303Z,38595.3
2018-02-18T08:06:01.099Z,40028.6
2018-02-18T08:07:01.126Z,41470.7
2018-02-18T08:08:01.107Z,42885.7
2018-02-18T08:09:01.128Z,44280.9
2018-02-18T08:11:01.308Z,45721.8
2018-02-18T08:12:01.086Z,47193.4
2018-02-18T08:13:01.087Z,48777.3
2018-02-18T08:14:01.114Z,50337.7
2018-02-18T08:15:01.086Z,51873.8
2018-02-18T08:16:01.299Z,53509.6
2018-02-18T08:17:01.084Z,55051.1
2018-02-18T08:18:01.080Z,56402.4
2018-02-18T08:19:01.084Z,57460.3
2018-02-18T08:20:01.111Z,58404.4
2018-02-18T08:21:01.253Z,59357.3
2018-02-18T08:22:01.083Z,60208.5
2018-02-18T08:23:01.089Z,60988.0
2018-02-18T08:24:01.050Z,61722.7
2018-02-18T08:25:01.111Z,62503.6
2018-02-18T08:26:01.291Z,63184.3
2018-02-18T08:27:01.083Z,63775.3
2018-02-18T08:28:01.084Z,64188.2
2018-02-18T08:29:01.058Z,64554.5
2018-02-18T08:30:01.120Z,64787.1
2018-02-18T08:31:01.291Z,64261.9
2018-02-18T08:32:01.088Z,63667.8
2018-02-18T08:33:01.089Z,63200.5
2018-02-18T08:34:01.090Z,62870.3
2018-02-18T08:35:01.088Z,62585.1
2018-02-18T08:36:01.306Z,62238.3
2018-02-18T08:37:01.089Z,62204.3
2018-02-18T08:38:01.088Z,62254.0
2018-02-18T08:39:01.091Z,62330.5
2018-02-18T08:40:01.104Z,62331.1
2018-02-18T08:45:01.333Z,62406.1
2018-02-18T08:46:01.101Z,63036.0
2018-02-18T08:47:01.092Z,63693.0
2018-02-18T08:48:01.091Z,64250.7
2018-02-18T08:49:01.096Z,64736.5
2018-02-18T08:50:01.314Z,65128.1
2018-02-18T08:51:01.094Z,65474.8
2018-02-18T08:52:01.092Z,65535.0
2018-02-18T09:00:01.460Z,65535.0
2018-02-18T09:15:01.318Z,65535.0
2018-02-18T09:30:01.388Z,65535.0
2018-02-18T09:45:01.336Z,65535.0
2018-02-18T10:00:01.351Z,65535.0
2018-02-18T10:15:06.320Z,65535.0
2018-02-18T10:30:01.419Z,65535.0
2018-02-18T10:45:01.345Z,65535.0
2018-02-18T11:00:01.407Z,65535.0
2018-02-18T11:15:01.359Z,65535.0
2018-02-18T11:30:01.394Z,65535.0
2018-02-18T11:45:01.340Z,65535.0
2018-02-18T12:00:01.452Z,65535.0
2018-02-18T12:15:01.355Z,65535.0
2018-02-18T12:30:01.459Z,65535.0
2018-02-18T12:45:01.308Z,65535.0
2018-02-18T13:00:06.421Z,65535.0
2018-02-18T13:15:02.534Z,65535.0
2018-02-18T13:30:02.487Z,65535.0
2018-02-18T13:45:01.297Z,65535.0
2018-02-18T14:00:01.382Z,65535.0
2018-02-18T14:15:01.343Z,65535.0
2018-02-18T14:30:01.398Z,65535.0
2018-02-18T14:45:02.425Z,65535.0
2018-02-18T14:47:01.134Z,65296.2
2018-02-18T14:48:01.096Z,64765.3
2018-02-18T14:49:01.095Z,64033.9
2018-02-18T14:50:01.304Z,63162.5
2018-02-18T14:51:01.066Z,62204.7
2018-02-18T14:52:01.129Z,61197.5
2018-02-18T14:53:01.100Z,60147.9
2018-02-18T14:54:01.154Z,58984.5
2018-02-18T14:55:01.371Z,57756.6
2018-02-18T14:56:01.103Z,56461.9
2018-02-18T14:57:01.124Z,55013.6
2018-02-18T14:58:01.097Z,53460.7
2018-02-18T14:59:01.101Z,51855.2
2018-02-18T15:00:01.317Z,50234.0
2018-02-18T15:01:01.098Z,48615.8
2018-02-18T15:02:01.109Z,47247.0
2018-02-18T15:03:01.069Z,46174.8
2018-02-18T15:04:01.103Z,45310.1
2018-02-18T15:05:01.338Z,44603.0
2018-02-18T15:06:01.102Z,44008.8
2018-02-18T15:08:01.081Z,43500.1
2018-02-18T15:09:01.083Z,43035.7
2018-02-18T15:10:01.355Z,42682.6
2018-02-18T15:11:01.083Z,42390.8
2018-02-18T15:12:01.083Z,42157.5
2018-02-18T15:13:01.092Z,42059.3
2018-02-18T15:14:01.082Z,42024.1
2018-02-18T15:15:01.348Z,41972.1
2018-02-18T15:16:01.082Z,41848.5
2018-02-18T15:17:01.087Z,41628.9
2018-02-18T15:18:01.085Z,41320.3
2018-02-18T15:19:01.096Z,40942.5
2018-02-18T15:20:01.311Z,40506.6
2018-02-18T15:21:01.083Z,40010.2
2018-02-18T15:22:01.085Z,39446.7
2018-02-18T15:23:01.056Z,38812.7
2018-02-18T15:24:01.086Z,38151.9
2018-02-18T15:25:01.503Z,37469.1
2018-02-18T15:26:01.088Z,36757.2
2018-02-18T15:27:01.088Z,36019.8
2018-02-18T15:28:01.114Z,35272.1
2018-02-18T15:29:01.102Z,34535.1
2018-02-18T15:30:01.292Z,33835.1
2018-02-18T15:31:01.052Z,33193.1
2018-02-18T15:32:01.082Z,32619.2
2018-02-18T15:33:01.099Z,32098.7
2018-02-18T15:34:01.087Z,31627.9
2018-02-18T15:35:01.286Z,31211.2
2018-02-18T15:36:01.084Z,30843.6
2018-02-18T15:37:01.082Z,30538.1
2018-02-18T15:38:01.084Z,30283.1
2018-02-18T15:39:01.121Z,30058.0
2018-02-18T15:40:01.326Z,29845.3
2018-02-18T15:41:01.086Z,29663.1
2018-02-18T15:42:01.096Z,29516.9
2018-02-18T15:43:01.084Z,29411.1
2018-02-18T15:44:01.086Z,29340.8
2018-02-18T15:45:01.320Z,29301.1
2018-02-18T15:46:01.084Z,29282.0
2018-02-18T15:47:01.088Z,29274.9
2018-02-18T15:48:01.055Z,29278.6
2018-02-18T15:49:01.087Z,29276.9
2018-02-18T15:50:01.321Z,29238.3
2018-02-18T15:51:01.091Z,29142.0
2018-02-18T15:52:01.083Z,28952.7
2018-02-18T15:53:01.107Z,28651.7
2018-02-18T15:54:01.086Z,28238.9
2018-02-18T15:55:01.292Z,27732.1
2018-02-18T15:56:01.087Z,27135.1
2018-02-18T15:57:01.088Z,26458.2
2018-02-18T15:58:01.089Z,25707.5
2018-02-18T15:59:01.094Z,24900.8
2018-02-18T16:00:01.295Z,24052.4
2018-02-18T16:01:01.127Z,23174.7
2018-02-18T16:02:01.090Z,22276.1
2018-02-18T16:03:01.088Z,21357.7
2018-02-18T16:04:01.060Z,20425.1
2018-02-18T16:05:01.313Z,19492.5
2018-02-18T16:06:01.088Z,18578.1
2018-02-18T16:07:01.121Z,17703.5
2018-02-18T16:08:01.104Z,16890.3
2018-02-18T16:09:01.099Z,16149.1
2018-02-18T16:10:01.371Z,15479.1
2018-02-18T16:11:01.089Z,14869.5
2018-02-18T16:12:01.088Z,14308.3
2018-02-18T16:13:01.095Z,13783.3
2018-02-18T16:14:01.088Z,13285.7
2018-02-18T16:15:01.316Z,12809.5
2018-02-18T16:16:01.088Z,12350.1
2018-02-18T16:17:01.060Z,11903.5
2018-02-18T16:18:01.092Z,11469.3
2018-02-18T16:19:01.057Z,11046.5
2018-02-18T16:20:01.331Z,10633.1
2018-02-18T16:21:01.094Z,10227.5
2018-02-18T16:22:01.112Z,9827.9
2018-02-18T16:23:01.112Z,9435.3
2018-02-18T16:24:01.100Z,9050.1
2018-02-18T16:25:01.338Z,8671.3
2018-02-18T16:26:01.094Z,8296.5
2018-02-18T16:27:01.097Z,7925.5
2018-02-18T16:28:01.095Z,7556.4
2018-02-18T16:29:01.116Z,7186.6
2018-02-18T16:30:01.303Z,6816.3
2018-02-18T16:31:01.096Z,6447.9
2018-02-18T16:32:01.110Z,6083.0
2018-02-18T16:33:01.106Z,5723.8
2018-02-18T16:35:01.318Z,5356.0
2018-02-18T16:36:01.082Z,4998.1
2018-02-18T16:37:01.084Z,4651.8
2018-02-18T16:38:01.083Z,4317.8
2018-02-18T16:39:01.136Z,3995.8
2018-02-18T16:40:01.317Z,3686.5
2018-02-18T16:41:01.052Z,3392.1
2018-02-18T16:42:01.080Z,3114.5
2018-02-18T16:43:01.082Z,2852.9
2018-02-18T16:44:01.079Z,2607.0
2018-02-18T16:45:01.382Z,2377.3
2018-02-18T16:46:01.079Z,2162.4
2018-02-18T16:47:01.078Z,1959.5
2018-02-18T16:48:01.080Z,1767.5
2018-02-18T16:49:01.119Z,1585.5
2018-02-18T16:50:01.289Z,1429.9
2018-02-18T16:51:01.107Z,1284.2
2018-02-18T16:52:01.081Z,1147.9
2018-02-18T16:53:01.048Z,1021.5
2018-02-18T16:54:01.110Z,906.7
2018-02-18T16:55:01.289Z,803.9
2018-02-18T16:56:01.104Z,711.9
2018-02-18T16:57:01.081Z,628.7
2018-02-18T16:58:01.081Z,552.9
2018-02-18T16:59:01.079Z,483.9
2018-02-18T17:00:01.284Z,421.8
2018-02-18T17:01:01.111Z,366.4
2018-02-18T17:02:01.111Z,317.2
2018-02-18T17:03:01.049Z,273.7
2018-02-18T17:04:01.083Z,235.5
2018-02-18T17:05:01.291Z,201.9
2018-02-18T17:06:01.084Z,172.5
2018-02-18T17:07:01.078Z,147.1
2018-02-18T17:08:01.053Z,125.1
2018-02-18T17:09:01.085Z,106.2
2018-02-18T17:10:01.326Z,89.9
2018-02-18T17:11:01.089Z,75.9
2018-02-18T17:12:01.126Z,64.0
2018-02-18T17:13:01.084Z,53.9
2018-02-18T17:14:01.057Z,45.3
2018-02-18T17:15:01.331Z,38.0
2018-02-18T17:16:01.053Z,31.9
2018-02-18T17:17:01.088Z,26.7
2018-02-18T17:18:01.124Z,22.5
2018-02-18T17:19:01.087Z,18.9
2018-02-18T17:20:01.292Z,15.9
2018-02-18T17:21:01.095Z,13.3
2018-02-18T17:22:01.089Z,11.2
2018-02-18T17:23:01.088Z,9.4
2018-02-18T17:24:01.111Z,7.9
2018-02-18T17:25:01.296Z,6.6
2018-02-18T17:26:01.088Z,5.5
2018-02-18T17:27:01.089Z,4.7
2018-02-18T17:28:01.090Z,3.9
2018-02-18T17:29:01.117Z,3.3
2018-02-18T17:30:01.301Z,2.9
2018-02-18T17:31:01.058Z,2.5
2018-02-18T17:32:01.092Z,2.1
2018-02-18T17:33:01.087Z,1.8
2018-02-18T17:34:01.122Z,1.5
2018-02-18T17:35:01.298Z,1.3
2018-02-18T17:36:01.087Z,1.1
2018-02-18T17:37:01.090Z,0.9
2018-02-18T17:38:01.089Z,0.7
2018-02-18T17:39:01.088Z,0.6
2018-02-18T17:40:01.319Z,0.5
2018-02-18T17:41:01.119Z,0.4
2018-02-18T17:42:01.056Z,0.3
2018-02-18T17:44:01.140Z,0.2
2018-02-18T17:45:01.298Z,0.1
